29 czerwca 2022

Czas Kod Pogoda Temp. Widoczność Sufit Wiatr METAR/SPECI
9:00 pm
V
59 °F 30 mi 7.000 ft 300° 300° 3 kt METAR CYVR 300400Z 30003KT 30SM FEW045 SCT054 BKN070 15/14 A3016 RMK SC2SC1AC3 CU ASOCTD LWR SC SLP215
8:00 pm
V
63 °F 30 mi 6.800 ft 230° 230° 5 kt METAR CYVR 300300Z 23005KT 30SM FEW045 BKN068 BKN110 17/13 A3016 RMK SC2AC4AC1 AC TR CU ASOCTD SLP215
7:00 pm
V
64 °F 30 mi 6.800 ft 250° 250° 5 kt METAR CYVR 300200Z 25005KT 200V310 30SM SCT040 BKN068 BKN100 18/14 A3016 RMK SC3AC3AC1 AC TR CU ASOCTD SLP216 DENSITY ALT 100FT
6:00 pm
V
64 °F 30 mi 6.600 ft 200° 200° 10 kt METAR CYVR 300100Z 20010KT 180V320 30SM SCT039 BKN066 BKN100 BKN160 BKN180 18/12 A3016 RMK SC4AC1AC1AC1AC1 AC TR AC TR CU EMBEDED SLP215 DENSITY ALT 100FT
5:00 pm
V
64 °F 30 mi 10.000 ft 220° 220° 10 kt METAR CYVR 300000Z 22010KT 30SM FEW030 SCT038 SCT062 BKN100 BKN180 18/12 A3016 RMK CU1SC2SC1AC1AC1 AC TR SLP217 DENSITY ALT 200FT
4:00 pm
V
70 °F 30 mi 18.000 ft 110° 110° 8 kt METAR CYVR 292300Z 11008KT 090V170 30SM FEW032 SCT070 SCT100 BKN180 BKN210 21/13 A3016 RMK SC2AC1AC1AC1CI1 CI TR CU EMBEDED SLP216 DENSITY ALT 500FT
3:00 pm
V
70 °F 30 mi - 150° 150° 10 kt METAR CYVR 292200Z 15010KT 30SM FEW040 FEW045 SCT070 SCT100 SCT180 21/13 A3016 RMK CU1SC2AC1AC1AC1 AC TR AC TR SLP217 DENSITY ALT 500FT
2:00 pm
V
68 °F 30 mi 11.000 ft 160° 160° 9 kt METAR CYVR 292100Z 16009KT 120V190 30SM FEW040 FEW045 SCT063 BKN110 BKN120 20/11 A3016 RMK CU1SC1SC2AC2AC1 SLP216 DENSITY ALT 300FT
1:00 pm
V
64 °F 30 mi 12.000 ft 160° 160° 9 kt METAR CYVR 292000Z 16009KT 30SM FEW030 FEW038 SCT110 BKN120 BKN160 18/12 A3016 RMK CU1SC1AC3AC1AS2 CU TR SLP215 DENSITY ALT 200FT
12:00 pm
V
64 °F 30 mi 7.000 ft 150° 150° 8 kt METAR CYVR 291900Z 15008KT 30SM FEW025 FEW030 FEW056 BKN070 BKN100 18/13 A3015 RMK CU1SC1SC2AC4AC1 CU TR SC TR SLP212 DENSITY ALT 200FT
11:00 am
V
63 °F 30 mi 7.000 ft 110° 110° 5 kt METAR CYVR 291800Z 11005KT 090V150 30SM FEW015 FEW023 SCT048 BKN070 BKN100 17/13 A3014 RMK CU1SC1SC3AC2AC1 CU TR SLP209
10:00 am
V
61 °F 25 mi 7.000 ft 120° 120° 9 kt METAR CYVR 291700Z 12009KT 25SM FEW015 FEW025 SCT048 BKN070 BKN100 16/13 A3013 RMK CU1SC1SC3AC3AC1 CU TR AC TR SLP206
9:00 am
V
59 °F 25 mi 6.800 ft 120° 120° 8 kt METAR CYVR 291600Z 12008KT 25SM FEW015 FEW025 SCT048 BKN068 BKN160 15/14 A3012 RMK CU1SC1SC2AC4AS1 CU TR AS TR SLP203
8:00 am
V
59 °F 20 mi 6.600 ft 110° 110° 8 kt METAR CYVR 291500Z 11008KT 20SM FEW015 SCT050 BKN066 BKN070 BKN160 15/14 A3010 RMK SC1SC2AC3AC1AS1 AS TR SLP196
7:00 am
V
57 °F 20 mi 6.900 ft 100° 100° 8 kt METAR CYVR 291400Z 10008KT 20SM FEW015 FEW050 BKN069 BKN160 14/14 A3009 RMK SC1SC2AC5AS1 SC TR AS TR SLP192
6:00 am
V
57 °F 20 mi 6.900 ft 100° 100° 7 kt METAR CYVR 291300Z 10007KT 20SM FEW020 FEW050 BKN069 14/14 A3008 RMK SC1SC2AC5 SC TR SLP188
5:00 am
V
57 °F 20 mi 7.100 ft 100° 100° 7 kt METAR CYVR 291200Z 10007KT 20SM FEW025 OVC071 14/13 A3008 RMK SC1AC8 SC TR SLP187
4:00 am
V
57 °F 20 mi 7.500 ft 100° 100° 8 kt METAR CYVR 291100Z 10008KT 20SM BKN075 14/13 A3007 RMK AC7 SLP186
3:00 am
V
57 °F 20 mi 7.600 ft 090° 090° 5 kt METAR CYVR 291000Z 09005KT 20SM FEW035 BKN076 14/14 A3007 RMK SC1AC6 SLP186
2:00 am
V
57 °F 20 mi 6.900 ft 090° 090° 8 kt METAR CYVR 290900Z 09008KT 20SM OVC069 14/14 A3006 RMK AC8 SLP183
1:00 am
V
59 °F 20 mi 6.600 ft 090° 090° 8 kt METAR CYVR 290800Z 09008KT 20SM FEW039 BKN066 OVC100 15/14 A3006 RMK SC1AC6AC1 SLP181
12:00 am
V
59 °F 20 mi 3.800 ft 090° 090° 6 kt METAR CYVR 290700Z 09006KT 20SM BKN038 OVC067 15/14 A3006 RMK SC7AC1 SLP183

28 czerwca 2022

Czas Kod Pogoda Temp. Widoczność Sufit Wiatr METAR/SPECI
11:00 pm
V
59 °F 20 mi 4.700 ft 100° 100° 8 kt METAR CYVR 290600Z 10008KT 20SM FEW035 BKN047 OVC090 15/14 A3006 RMK SC1SC6AC1 SLP183
10:00 pm
V
59 °F 20 mi 5.000 ft 110° 110° 8 kt METAR CYVR 290500Z 11008KT 20SM FEW036 BKN050 BKN100 15/14 A3006 RMK SC1SC5AC1 SLP183
9:00 pm
V
59 °F 20 mi 5.800 ft 090° 090° 10 kt METAR CYVR 290400Z 09010KT 20SM FEW030 BKN058 BKN093 15/14 A3006 RMK SC1SC5AC2 SC TR SLP180
8:00 pm
V
59 °F 20 mi 6.500 ft 100° 100° 8 kt METAR CYVR 290300Z 10008KT 20SM FEW040 BKN065 BKN090 15/14 A3006 RMK SC1SC4AC2 SLP180
7:00 pm
V
61 °F 20 mi 5.100 ft 130° 130° 5 kt METAR CYVR 290200Z 13005KT 20SM FEW020 FEW035 OVC051 16/14 A3006 RMK CU1SC1SC7 CU TR SLP182
6:00 pm
V
61 °F 20 mi 6.000 ft 120° 120° 8 kt METAR CYVR 290100Z 12008KT 20SM FEW025 FEW034 OVC060 16/14 A3005 RMK SC1SC2SC6 SC TR SLP178
5:00 pm
V
61 °F 15 mi 5.800 ft 130° 130° 4 kt METAR CYVR 290000Z 13004KT 15SM -RA FEW020 BKN058 BKN068 OVC075 16/14 A3005 RMK SC1SC6AC1AC1 SC TR SLP177 DENSITY ALT 100FT
4:00 pm
V
63 °F 20 mi 5.500 ft 130° 130° 4 kt METAR CYVR 282300Z 13004KT 110V180 20SM -RA FEW025 BKN055 OVC070 17/12 A3005 RMK SC1SC7AC1 SC TR SLP178 DENSITY ALT 200FT
3:03 pm
V
63 °F 30 mi 6.000 ft 130° 130° 11 kt METAR CYVR 282203Z 13011KT 30SM -RA FEW040 BKN060 BKN070 OVC100 17/11 A3004 RMK CU1SC6AC1AC1 CU TR SLP174 DENSITY ALT 200FT
2:00 pm
V
64 °F 30 mi 6.300 ft 130° 130° 10 kt METAR CYVR 282100Z 13010KT 30SM FEW040 BKN063 BKN070 OVC100 18/12 A3004 RMK CU1SC6AC1AC1 CU TR SLP174 DENSITY ALT 300FT
12:00 pm
V
66 °F 25 mi 5.400 ft 120° 120° 12 kt METAR CYVR 281900Z 12012KT 25SM FEW030 SCT033 SCT043 BKN054 BKN070 19/12 A3003 RMK CU2SC1SC2SC2AC1 AC TR SLP172 DENSITY ALT 400FT
11:00 am
V
64 °F 20 mi 7.000 ft 130° 130° 14 kt METAR CYVR 281800Z 13014KT 20SM FEW040 SCT054 BKN070 BKN100 18/12 A3001 RMK CU1SC3AC2AC1 SH DIST N SLP165 DENSITY ALT 300FT
10:00 am
V
64 °F 20 mi 5.000 ft 120° 120° 12 kt METAR CYVR 281700Z 12012KT 20SM FEW018 FEW026 BKN050 BKN100 BKN160 18/13 A2999 RMK SC1SC2SC3AC2AS1 SC TR AS TR CU EMBEDED SH DIST N SLP159 DENSITY ALT 300FT
9:00 am
V
63 °F 30 mi 5.000 ft 110° 110° 11 kt METAR CYVR 281600Z 11011KT 30SM SCT018 SCT048 BKN050 BKN100 17/13 A2998 RMK SC3SC1SC1AC2 CU EMBEDED SLP156 DENSITY ALT 200FT
8:00 am
V
61 °F 30 mi - 110° 110° 11 - 18 kt METAR CYVR 281500Z 11011G18KT 30SM FEW045 FEW060 FEW070 FEW100 16/13 A2997 RMK CU1SC1AC1AC1 CU TR SC TR AC TR AC TR SLP150 DENSITY ALT 100FT
7:00 am
V
61 °F 30 mi - 110° 110° 13 - 18 kt METAR CYVR 281400Z 11013G18KT 30SM FEW060 FEW070 FEW100 16/13 A2994 RMK SC1AC1AC1 SC TR AC TR AC TR SLP142 DENSITY ALT 100FT
6:00 am
V
59 °F 20 mi - 100° 100° 14 kt METAR CYVR 281300Z 10014KT 20SM FEW230 15/12 A2993 RMK CS1 SLP137
5:00 am
V
57 °F 20 mi - 100° 100° 13 kt METAR CYVR 281200Z 10013KT 20SM FEW230 14/12 A2992 RMK CS1 SLP133
4:00 am
V
59 °F 20 mi - 130° 130° 10 kt METAR CYVR 281100Z 13010KT 20SM FEW230 15/12 A2990 RMK CS1 CONTRAILS SLP128 DENSITY ALT 100FT
3:00 am
V
59 °F 20 mi - 100° 100° 12 kt METAR CYVR 281000Z 10012KT 20SM SKC 15/13 A2990 RMK SLP129 DENSITY ALT 100FT
2:00 am
V
61 °F 20 mi - 090° 090° 10 kt METAR CYVR 280900Z 09010KT 20SM FEW230 16/13 A2990 RMK CC1 CC TR SLP126 DENSITY ALT 200FT
1:00 am
V
63 °F 20 mi - 120° 120° 7 kt METAR CYVR 280800Z 12007KT 20SM FEW230 17/13 A2988 RMK CC1 SLP122 DENSITY ALT 400FT
12:00 am
V
66 °F 20 mi - 100° 100° 10 kt METAR CYVR 280700Z 10010KT 20SM SCT230 19/13 A2988 RMK CC3 SLP120 DENSITY ALT 600FT

27 czerwca 2022

Czas Kod Pogoda Temp. Widoczność Sufit Wiatr METAR/SPECI
11:00 pm
V
70 °F 20 mi 23.000 ft 130° 130° 8 kt METAR CYVR 280600Z 13008KT 20SM FEW130 BKN230 21/13 A2987 RMK AC1CC6 SLP118 DENSITY ALT 900FT
10:00 pm
V
72 °F 20 mi 13.000 ft 120° 120° 5 kt METAR CYVR 280500Z 12005KT 20SM BKN130 BKN170 22/13 A2986 RMK AC6AC1 SLP113 DENSITY ALT 1000FT
9:00 pm
V
73 °F 20 mi 15.000 ft 090° 090° 11 kt METAR CYVR 280400Z 09011KT 20SM BKN150 BKN180 23/14 A2983 RMK ACC6AC1 SLP104 DENSITY ALT 1100FT
8:00 pm
V
75 °F 20 mi 13.000 ft 140° 140° 4 kt METAR CYVR 280300Z 14004KT 20SM BKN130 24/13 A2984 RMK ACC7 SLP106 DENSITY ALT 1200FT
7:00 pm
V
75 °F 25 mi 13.000 ft Var 000° 0 kt METAR CYVR 280200Z 00000KT 25SM BKN130 24/15 A2983 RMK ACC7 SLP104 DENSITY ALT 1200FT
6:00 pm
V
72 °F 30 mi 24.000 ft 230° 230° 4 kt METAR CYVR 280100Z 23004KT 210V290 30SM SCT150 SCT160 SCT180 SCT210 BKN240 22/19 A2983 RMK AC3AC1AC1CI1CS2 AC TR CI TR SLP105 DENSITY ALT 1000FT
5:00 pm
V
75 °F 30 mi 21.000 ft 260° 260° 5 kt METAR CYVR 280000Z 26005KT 220V290 30SM FEW150 SCT160 BKN210 24/16 A2984 RMK AC2AC2CI2 SLP108 DENSITY ALT 1200FT
Starsze dane

Pobierz naszą aplikację

Łatwy dostęp do całej pogody lotniczej na telefonie komórkowym i tablecie.
Z wieloma funkcjami niedostępnymi na stronie internetowej, takimi jak wsparcie offline i osobista lista lotnisk.

My i osoby trzecie śledzimy twoje zachowanie w internecie na naszej stronie za pomocą plików cookie. Jeśli kontynuujesz, zakładamy, że zgadzasz się z naszą polityką plików cookie. Dowiedz się więcej